Time;durP1;ratioP1;P1;durP2;ratioP2;P2;SDS_P1;SDS_P2;PMS_P1;PMS_P2;Temp;Humidity;BMP_temperature;BMP_pressure;BME280_temperature;BME280_humidity;BME280_pressure;Samples;Min_cycle;Max_cycle;Signal;HPM_P1;HPM_P2
2022/09/23 00:00:48;;;;;;;0.20;0.20;;;;;;;13.32;64.20;101862.22;2084438;28;20091;-69
2022/09/23 00:01:50;;;;;;;0.20;0.20;;;;;;;13.34;63.74;101859.19;2086575;28;20468;-69
2022/09/23 00:02:53;;;;;;;0.20;0.20;;;;;;;13.34;63.78;101862.69;2080482;28;20128;-69
2022/09/23 00:03:58;;;;;;;0.20;0.20;;;;;;;13.34;63.37;101864.59;2083956;28;20128;-69
2022/09/23 00:05:00;;;;;;;0.20;0.20;;;;;;;13.33;63.99;101854.91;2085524;28;20053;-69
2022/09/23 00:06:06;;;;;;;0.30;0.30;;;;;;;13.36;63.28;101854.22;2084228;28;20560;-68
2022/09/23 00:07:10;;;;;;;0.25;0.25;;;;;;;13.36;63.99;101863.16;2081504;28;20057;-68
2022/09/23 00:08:13;;;;;;;0.20;0.20;;;;;;;13.35;63.52;101861.56;2080853;28;20132;-69
2022/09/23 00:09:15;;;;;;;0.25;0.25;;;;;;;13.34;63.45;101865.41;2087964;28;20064;-68
2022/09/23 00:10:18;;;;;;;0.25;0.25;;;;;;;13.29;63.61;101853.97;2084578;28;20486;-69
2022/09/23 00:11:23;;;;;;;0.20;0.20;;;;;;;13.25;63.75;101853.88;2084434;28;20049;-68
2022/09/23 00:12:26;;;;;;;0.20;0.20;;;;;;;13.20;64.23;101861.41;2085332;28;20060;-68
2022/09/23 00:13:28;;;;;;;0.10;0.10;;;;;;;13.12;64.42;101854.94;2085294;28;20053;-68
2022/09/23 00:14:31;;;;;;;0.17;0.17;;;;;;;13.08;64.23;101856.72;2088162;28;20041;-69
2022/09/23 00:15:37;;;;;;;0.10;0.10;;;;;;;13.05;64.75;101854.66;2080988;28;20548;-69
2022/09/23 00:16:40;;;;;;;0.30;0.30;;;;;;;13.02;64.49;101844.47;2084715;28;20049;-68
2022/09/23 00:17:43;;;;;;;0.30;0.30;;;;;;;13.06;64.43;101844.63;2087442;28;20084;-69
2022/09/23 00:18:45;;;;;;;0.22;0.22;;;;;;;13.07;64.10;101844.28;2087731;28;20049;-68
2022/09/23 00:19:48;;;;;;;0.30;0.30;;;;;;;13.03;64.41;101848.78;2081350;28;20451;-69
2022/09/23 00:20:51;;;;;;;0.20;0.20;;;;;;;13.01;64.72;101848.34;2087498;28;20087;-69
2022/09/23 00:21:55;;;;;;;0.20;0.20;;;;;;;12.99;64.59;101847.84;2083771;28;20460;-69
2022/09/23 00:23:00;;;;;;;0.20;0.20;;;;;;;12.97;64.52;101841.94;2080790;28;20147;-68
2022/09/23 00:24:02;;;;;;;0.30;0.30;;;;;;;12.90;65.10;101841.69;2088029;28;20061;-69
2022/09/23 00:25:06;;;;;;;0.20;0.20;;;;;;;12.89;64.53;101842.81;2082636;28;20073;-69
2022/09/23 00:26:10;;;;;;;0.30;0.30;;;;;;;12.88;64.75;101841.22;2087330;28;20057;-68
2022/09/23 00:27:13;;;;;;;0.30;0.30;;;;;;;12.84;64.89;101842.22;2080798;28;20049;-69
2022/09/23 00:28:15;;;;;;;0.20;0.20;;;;;;;12.81;65.02;101843.66;2082542;28;20057;-68
2022/09/23 00:29:18;;;;;;;0.20;0.20;;;;;;;12.78;64.65;101843.56;2087646;28;20091;-69
2022/09/23 00:30:22;;;;;;;0.30;0.30;;;;;;;12.78;65.25;101832.72;2086125;28;20173;-68
2022/09/23 00:31:27;;;;;;;0.30;0.30;;;;;;;12.78;64.93;101840.84;2085551;28;20057;-68
2022/09/23 00:32:28;;;;;;;0.30;0.30;;;;;;;12.75;65.41;101834.16;2084159;28;20408;-69
2022/09/23 00:33:32;;;;;;;0.20;0.20;;;;;;;12.81;65.21;101830.09;2086508;28;20060;-69
2022/09/23 00:34:34;;;;;;;0.20;0.20;;;;;;;12.85;65.08;101838.38;2083745;28;20048;-69
2022/09/23 00:35:40;;;;;;;0.20;0.20;;;;;;;12.89;64.86;101834.66;2088508;28;20563;-68
2022/09/23 00:36:42;;;;;;;0.20;0.20;;;;;;;12.88;65.14;101833.09;2082966;28;20058;-69
2022/09/23 00:37:45;;;;;;;0.20;0.20;;;;;;;12.87;64.95;101836.94;2080770;28;20052;-68
2022/09/23 00:38:49;;;;;;;0.28;0.28;;;;;;;12.86;64.54;101840.00;2086950;28;20100;-68
2022/09/23 00:39:53;;;;;;;0.20;0.20;;;;;;;12.81;65.12;101834.75;2080373;28;20049;-68
2022/09/23 00:40:55;;;;;;;0.25;0.25;;;;;;;12.80;64.89;101836.66;2088176;28;20518;-68
2022/09/23 00:41:59;;;;;;;0.25;0.25;;;;;;;12.74;64.98;101827.16;2081483;28;20041;-68
2022/09/23 00:43:01;;;;;;;0.20;0.20;;;;;;;12.72;65.20;101832.09;2083651;28;20061;-68
2022/09/23 00:44:37;;;;;;;0.25;0.25;;;;;;;12.65;65.36;101828.34;2085459;28;20245;-68
2022/09/23 00:45:40;;;;;;;0.20;0.20;;;;;;;12.59;65.54;101841.28;2082646;28;20105;-68
2022/09/23 00:46:44;;;;;;;0.10;0.10;;;;;;;12.55;65.81;101834.94;2085369;28;20068;-68
2022/09/23 00:47:50;;;;;;;0.20;0.20;;;;;;;12.55;65.57;101834.13;2086201;28;20171;-68
2022/09/23 00:48:59;;;;;;;0.10;0.10;;;;;;;12.50;66.15;101837.84;2081936;28;20057;-68
2022/09/23 00:50:08;;;;;;;0.20;0.20;;;;;;;12.42;66.32;101838.69;2080790;28;20060;-68
2022/09/23 00:51:16;;;;;;;0.20;0.20;;;;;;;12.35;66.54;101834.91;2086175;28;20134;-68
2022/09/23 00:52:22;;;;;;;0.20;0.20;;;;;;;12.33;66.69;101837.94;2086636;28;20090;-68
2022/09/23 00:53:26;;;;;;;0.20;0.20;;;;;;;12.32;66.94;101830.16;2085037;28;20531;-68
2022/09/23 00:54:33;;;;;;;0.17;0.17;;;;;;;12.30;66.98;101833.19;2087223;28;20049;-68
2022/09/23 00:55:40;;;;;;;0.20;0.20;;;;;;;12.25;66.76;101827.97;2076289;28;20083;-68
2022/09/23 00:56:43;;;;;;;0.30;0.30;;;;;;;12.23;67.21;101834.81;2073301;28;20132;-68
2022/09/23 00:57:47;;;;;;;0.20;0.20;;;;;;;12.21;67.26;101834.38;2085801;28;20049;-68
2022/09/23 00:58:52;;;;;;;0.20;0.20;;;;;;;12.18;67.16;101829.59;2083085;28;20061;-69
2022/09/23 00:59:56;;;;;;;0.10;0.10;;;;;;;12.15;67.53;101825.63;2081012;28;20412;-68
2022/09/23 01:01:00;;;;;;;0.20;0.20;;;;;;;12.14;67.31;101823.25;2079997;28;20045;-68
2022/09/23 01:02:05;;;;;;;0.20;0.20;;;;;;;12.14;67.65;101824.03;2083944;28;20087;-68
2022/09/23 01:03:10;;;;;;;0.20;0.20;;;;;;;12.14;67.72;101829.47;2086992;28;20049;-68
2022/09/23 01:06:19;;;;;;;0.20;0.20;;;;;;;12.14;67.53;101829.47;2095222;28;20052;-68
2022/09/23 01:07:21;;;;;;;0.10;0.10;;;;;;;12.16;67.12;101823.72;2104657;28;20521;-68
2022/09/23 01:08:25;;;;;;;0.20;0.20;;;;;;;12.17;66.83;101825.28;2104513;28;20056;-68
2022/09/23 01:09:27;;;;;;;0.30;0.30;;;;;;;12.15;67.58;101825.63;2106674;28;20059;-69
2022/09/23 01:10:41;;;;;;;0.10;0.10;;;;;;;12.13;67.57;101818.97;2104721;28;20495;-67
2022/09/23 01:11:50;;;;;;;0.28;0.28;;;;;;;12.11;67.55;101824.69;2104614;28;20051;-68
2022/09/23 01:13:05;;;;;;;0.20;0.20;;;;;;;12.07;67.72;101818.34;2104509;28;20601;-68
2022/09/23 01:14:26;;;;;;;0.22;0.22;;;;;;;12.00;68.06;101815.38;2096545;28;20060;-68
2022/09/23 01:15:39;;;;;;;0.13;0.13;;;;;;;12.00;67.94;101818.06;2102688;28;20048;-68
2022/09/23 01:16:48;;;;;;;0.20;0.20;;;;;;;11.99;67.70;101816.47;2104483;28;20051;-68
2022/09/23 01:17:59;;;;;;;0.10;0.10;;;;;;;12.01;67.54;101816.94;2104608;28;20052;-68
2022/09/23 01:19:23;;;;;;;0.20;0.20;;;;;;;11.95;67.99;101815.53;2104716;28;20067;-68
2022/09/23 01:20:54;;;;;;;0.20;0.20;;;;;;;11.94;68.07;101808.53;2096502;28;20504;-67
2022/09/23 01:22:04;;;;;;;0.28;0.28;;;;;;;11.87;68.04;101814.47;2101259;28;20052;-67
2022/09/23 01:23:21;;;;;;;0.20;0.20;;;;;;;11.87;68.22;101808.25;2104249;28;20059;-68
2022/09/23 01:24:44;;;;;;;0.20;0.20;;;;;;;11.84;68.16;101803.50;2109030;28;20406;-68
2022/09/23 01:26:03;;;;;;;0.20;0.20;;;;;;;11.79;68.71;101804.47;2109832;28;20054;-68
2022/09/23 01:27:22;;;;;;;0.10;0.10;;;;;;;11.82;68.60;101803.81;2096331;28;20095;-68
2022/09/23 01:28:49;;;;;;;0.20;0.20;;;;;;;11.82;68.84;101800.31;2111431;28;20078;-68
2022/09/23 01:30:15;;;;;;;0.20;0.20;;;;;;;11.77;68.86;101798.59;2106073;28;20051;-68
2022/09/23 01:31:23;;;;;;;0.20;0.20;;;;;;;11.79;68.54;101801.78;2091694;28;20938;-68
2022/09/23 01:32:38;;;;;;;0.20;0.20;;;;;;;11.79;68.48;101796.34;2096510;28;21199;-68
2022/09/23 01:33:52;;;;;;;0.17;0.17;;;;;;;11.81;68.49;101801.44;2113211;28;20043;-68
2022/09/23 01:35:01;;;;;;;0.25;0.25;;;;;;;11.83;68.28;101801.88;2104729;28;20074;-68
2022/09/23 01:36:17;;;;;;;0.20;0.20;;;;;;;11.86;68.58;101791.22;2107952;28;20055;-68
2022/09/23 01:37:27;;;;;;;0.20;0.20;;;;;;;11.89;68.39;101800.59;2112769;28;20044;-68
2022/09/23 01:38:40;;;;;;;0.20;0.20;;;;;;;11.83;68.52;101797.28;2111801;28;20152;-68
2022/09/23 01:39:51;;;;;;;0.20;0.20;;;;;;;11.85;68.43;101794.25;2098440;28;20044;-68
2022/09/23 01:41:03;;;;;;;0.20;0.20;;;;;;;11.82;68.57;101794.91;2103876;28;20078;-68
2022/09/23 01:42:15;;;;;;;0.20;0.20;;;;;;;11.79;68.27;101796.34;2102693;28;20169;-68
2022/09/23 01:43:25;;;;;;;0.20;0.20;;;;;;;11.80;68.57;101795.22;2104050;28;20048;-66
2022/09/23 01:44:33;;;;;;;0.20;0.20;;;;;;;11.79;68.37;101799.06;2104757;28;20060;-66
2022/09/23 01:45:47;;;;;;;0.20;0.20;;;;;;;11.77;68.61;101793.16;2099155;28;20180;-67
2022/09/23 01:46:53;;;;;;;0.10;0.10;;;;;;;11.76;68.65;101790.78;2099152;28;20049;-67
2022/09/23 01:48:02;;;;;;;0.20;0.20;;;;;;;11.79;68.49;101782.03;2105150;28;20264;-67
2022/09/23 01:49:11;;;;;;;0.20;0.20;;;;;;;11.79;68.54;101795.56;2096433;28;20048;-67
2022/09/23 01:51:40;;;;;;;0.20;0.20;;;;;;;11.77;68.46;101795.06;2081773;28;20064;-67
2022/09/23 01:52:46;;;;;;;0.20;0.20;;;;;;;11.78;68.56;101793.97;2104591;28;20796;-68
2022/09/23 01:53:55;;;;;;;0.20;0.20;;;;;;;11.78;68.55;101785.84;2096189;28;20095;-68
2022/09/23 01:55:05;;;;;;;0.20;0.20;;;;;;;11.78;68.51;101791.28;2101645;28;20052;-68
2022/09/23 01:56:20;;;;;;;0.15;0.15;;;;;;;11.76;68.84;101790.78;2104064;28;20048;-67
2022/09/23 01:57:30;;;;;;;0.20;0.20;;;;;;;11.76;68.58;101790.78;2096341;28;20159;-68
2022/09/23 01:58:41;;;;;;;0.20;0.20;;;;;;;11.73;68.67;101780.63;2096209;28;20578;-68
2022/09/23 01:59:48;;;;;;;0.20;0.20;;;;;;;11.72;68.86;101779.81;2102476;28;20060;-68
2022/09/23 02:00:57;;;;;;;0.20;0.20;;;;;;;11.73;68.53;101776.00;2104471;28;20411;-68
2022/09/23 02:02:04;;;;;;;0.15;0.15;;;;;;;11.75;68.51;101770.25;2103960;28;20440;-68
2022/09/23 02:03:14;;;;;;;0.30;0.30;;;;;;;11.78;68.75;101769.63;2098282;28;20060;-68
2022/09/23 02:04:21;;;;;;;0.30;0.30;;;;;;;11.80;68.51;101770.06;2105910;28;20063;-68
2022/09/23 02:05:29;;;;;;;0.30;0.30;;;;;;;11.84;68.53;101771.03;2112788;28;20052;-68
2022/09/23 02:06:36;;;;;;;0.20;0.20;;;;;;;11.88;68.30;101761.13;2102738;28;20094;-67
2022/09/23 02:07:47;;;;;;;0.20;0.20;;;;;;;11.90;68.14;101762.41;2103620;28;20514;-68
2022/09/23 02:08:55;;;;;;;0.20;0.20;;;;;;;11.93;67.95;101764.44;2096332;28;20488;-68
2022/09/23 02:10:05;;;;;;;0.30;0.30;;;;;;;11.96;68.08;101763.00;2088338;28;20159;-68
2022/09/23 02:11:09;;;;;;;;;;;;;;;11.84;68.47;101755.56;2098674;28;20606;-68
2022/09/23 02:12:20;;;;;;;0.30;0.30;;;;;;;11.94;67.80;101757.09;2102166;28;19924;-68
2022/09/23 02:13:28;;;;;;;0.22;0.22;;;;;;;11.97;67.47;101761.88;2095973;28;20048;-67
2022/09/23 02:14:38;;;;;;;0.20;0.20;;;;;;;11.98;67.74;101758.06;2101550;28;20044;-67
2022/09/23 02:15:46;;;;;;;0.30;0.30;;;;;;;11.97;67.66;101754.53;2105627;28;20045;-67
2022/09/23 02:16:52;;;;;;;0.20;0.20;;;;;;;11.96;67.65;101757.56;2106543;28;20054;-67
2022/09/23 02:18:00;;;;;;;0.30;0.30;;;;;;;11.96;67.27;101766.50;2103247;28;20388;-67
2022/09/23 02:19:10;;;;;;;0.25;0.25;;;;;;;11.93;67.53;101764.44;2106989;28;20626;-67
2022/09/23 02:20:19;;;;;;;0.20;0.20;;;;;;;11.87;67.78;101760.34;2113139;28;20079;-68
2022/09/23 02:21:27;;;;;;;0.20;0.20;;;;;;;11.82;67.76;101768.66;2104446;28;20487;-68
2022/09/23 02:22:37;;;;;;;0.20;0.20;;;;;;;11.78;67.98;101766.94;2099755;28;20041;-68
2022/09/23 02:23:43;;;;;;;;;;;;;;;11.55;69.17;101757.44;2098766;28;20040;-67
2022/09/23 02:24:46;;;;;;;0.20;0.20;;;;;;;11.61;68.60;101756.94;2104571;28;19920;-68
2022/09/23 02:25:56;;;;;;;0.20;0.20;;;;;;;11.61;69.02;101756.13;2105357;28;20052;-68
2022/09/23 02:27:10;;;;;;;0.20;0.20;;;;;;;11.59;68.72;101752.97;2106108;28;20082;-68
2022/09/23 02:28:17;;;;;;;0.20;0.20;;;;;;;11.57;68.88;101753.28;2113032;28;20108;-68
2022/09/23 02:29:25;;;;;;;0.20;0.20;;;;;;;11.59;68.55;101752.97;2104439;28;20048;-68
2022/09/23 02:30:30;;;;;;;0.30;0.30;;;;;;;11.57;68.87;101749.78;2097613;28;20080;-68
2022/09/23 02:31:39;;;;;;;0.30;0.30;;;;;;;11.52;69.13;101748.06;2087646;28;20117;-67
2022/09/23 02:32:49;;;;;;;0.30;0.30;;;;;;;11.53;69.18;101749.63;2088008;28;20056;-65
2022/09/23 02:33:57;;;;;;;0.30;0.30;;;;;;;11.53;68.93;101748.84;2091840;28;20041;-66
2022/09/23 02:35:08;;;;;;;0.20;0.20;;;;;;;11.51;69.27;101741.06;2096816;28;20754;-67
2022/09/23 02:36:24;;;;;;;0.20;0.20;;;;;;;11.52;69.31;101749.97;2103935;28;20074;-65
2022/09/23 02:37:36;;;;;;;0.20;0.20;;;;;;;11.49;69.47;101747.91;2097697;28;20587;-65
2022/09/23 02:38:44;;;;;;;0.20;0.20;;;;;;;11.44;69.45;101743.47;2106288;28;20486;-66
2022/09/23 02:39:57;;;;;;;0.20;0.20;;;;;;;11.39;69.70;101748.25;2111570;28;20059;-66
2022/09/23 02:41:08;;;;;;;0.20;0.20;;;;;;;11.37;69.87;101737.00;2096173;28;20065;-67
2022/09/23 02:42:12;;;;;;;;;;;;;;;11.19;70.66;101735.44;2104134;28;20075;-67
2022/09/23 02:43:21;;;;;;;0.20;0.20;;;;;;;11.22;69.89;101734.81;2099933;28;19964;-67
2022/09/23 02:44:24;;;;;;;0.20;0.20;;;;;;;11.22;70.05;101741.00;2106182;28;20125;-67
2022/09/23 02:45:28;;;;;;;0.20;0.20;;;;;;;11.25;69.93;101728.75;2110941;28;20452;-68
2022/09/23 02:46:33;;;;;;;0.20;0.20;;;;;;;11.30;69.56;101731.28;2087427;28;20432;-68
2022/09/23 02:47:42;;;;;;;0.30;0.30;;;;;;;11.34;70.07;101730.31;2089089;28;20114;-68
2022/09/23 02:48:50;;;;;;;0.20;0.20;;;;;;;11.38;70.08;101728.56;2105413;28;20430;-68
2022/09/23 02:49:55;;;;;;;0.13;0.13;;;;;;;11.43;69.71;101722.19;2108505;28;20495;-68
2022/09/23 02:50:57;;;;;;;0.20;0.20;;;;;;;11.45;69.21;101734.25;2110692;28;20051;-68
2022/09/23 02:52:04;;;;;;;0.10;0.10;;;;;;;11.48;69.34;101724.69;2112716;28;20527;-69
2022/09/23 02:53:07;;;;;;;0.30;0.30;;;;;;;11.47;69.47;101721.19;2110051;28;20507;-68
2022/09/23 02:54:15;;;;;;;0.20;0.20;;;;;;;11.51;69.45;101719.41;2106019;28;20052;-68
2022/09/23 02:55:22;;;;;;;0.20;0.20;;;;;;;11.53;69.34;101727.19;2105517;28;20141;-67
2022/09/23 02:56:24;;;;;;;0.10;0.10;;;;;;;11.54;69.29;101723.41;2108007;28;20791;-68
2022/09/23 02:57:27;;;;;;;0.20;0.20;;;;;;;11.57;69.03;101726.25;2114399;28;20059;-67
2022/09/23 02:58:29;;;;;;;0.20;0.20;;;;;;;11.60;68.87;101727.50;2112900;28;20060;-68
2022/09/23 02:59:35;;;;;;;0.30;0.30;;;;;;;11.61;68.54;101724.47;2106984;28;20622;-67
2022/09/23 03:01:03;;;;;;;0.22;0.22;;;;;;;11.51;69.17;101718.66;2114378;28;20056;-67
2022/09/23 03:02:25;;;;;;;0.20;0.20;;;;;;;11.47;69.15;101723.09;2097528;28;20048;-67
2022/09/23 03:03:41;;;;;;;0.10;0.10;;;;;;;11.41;69.07;101722.50;2107512;28;20056;-67
2022/09/23 03:04:57;;;;;;;0.20;0.20;;;;;;;11.35;69.34;101723.00;2109806;28;20050;-67
2022/09/23 03:06:09;;;;;;;0.10;0.10;;;;;;;11.31;69.53;101724.75;2109306;28;20044;-68
2022/09/23 03:07:18;;;;;;;0.13;0.13;;;;;;;11.28;69.60;101720.78;2108215;28;20076;-67
2022/09/23 03:08:35;;;;;;;0.20;0.20;;;;;;;11.21;69.71;101717.00;2104942;28;20063;-68
2022/09/23 03:09:45;;;;;;;0.20;0.20;;;;;;;11.18;70.13;101713.03;2108592;28;20514;-67
2022/09/23 03:10:56;;;;;;;0.20;0.20;;;;;;;11.12;69.92;101713.50;2110660;28;20063;-68
2022/09/23 03:12:10;;;;;;;0.20;0.20;;;;;;;11.11;69.83;101703.84;2097292;28;20064;-68
2022/09/23 03:13:16;;;;;;;0.20;0.20;;;;;;;11.12;70.52;101705.41;2104143;28;20048;-68
2022/09/23 03:14:30;;;;;;;0.20;0.20;;;;;;;11.13;70.50;101707.00;2099894;28;20049;-68
2022/09/23 03:15:37;;;;;;;0.20;0.20;;;;;;;11.16;70.50;101701.72;2103811;28;20094;-68
2022/09/23 03:16:43;;;;;;;0.20;0.20;;;;;;;11.20;69.88;101696.47;2105964;28;20048;-68
2022/09/23 03:17:53;;;;;;;0.20;0.20;;;;;;;11.25;69.95;101693.59;2105627;28;20063;-67
2022/09/23 03:19:05;;;;;;;0.20;0.20;;;;;;;11.28;69.63;101692.97;2103665;28;20125;-68
2022/09/23 03:20:14;;;;;;;0.20;0.20;;;;;;;11.26;69.65;101695.97;2097298;28;20048;-71
2022/09/23 03:21:25;;;;;;;0.20;0.20;;;;;;;11.27;69.55;101686.78;2098565;28;20060;-69
2022/09/23 03:22:30;;;;;;;0.30;0.30;;;;;;;11.25;69.79;101678.19;2101126;28;20048;-68
2022/09/23 03:23:35;;;;;;;0.20;0.20;;;;;;;11.27;69.69;101686.78;2097129;28;20389;-68
2022/09/23 03:24:43;;;;;;;0.20;0.20;;;;;;;11.28;69.83;101687.56;2097319;28;20091;-69
2022/09/23 03:25:50;;;;;;;0.20;0.20;;;;;;;11.27;70.02;101684.06;2102315;28;20522;-68
2022/09/23 03:26:54;;;;;;;0.30;0.30;;;;;;;11.30;70.26;101688.81;2106099;28;20056;-67
2022/09/23 03:27:59;;;;;;;0.25;0.25;;;;;;;11.30;70.24;101688.03;2104963;28;20511;-68
2022/09/23 03:29:04;;;;;;;0.20;0.20;;;;;;;11.33;69.90;101687.38;2099227;28;20547;-67
2022/09/23 03:30:08;;;;;;;0.22;0.22;;;;;;;11.34;69.69;101692.47;2104494;28;20499;-68
2022/09/23 03:31:12;;;;;;;0.20;0.20;;;;;;;11.31;69.66;101692.31;2114206;28;20068;-67
2022/09/23 03:32:17;;;;;;;0.30;0.30;;;;;;;11.29;69.61;101698.03;2112488;28;20572;-67
2022/09/23 03:33:23;;;;;;;0.30;0.30;;;;;;;11.28;69.79;101690.25;2112077;28;20082;-68
2022/09/23 03:34:35;;;;;;;0.20;0.20;;;;;;;11.22;69.94;101691.56;2105828;28;20097;-68
2022/09/23 03:37:11;;;;;;;0.20;0.20;;;;;;;11.07;70.34;101689.41;2107833;28;20154;-68
2022/09/23 03:38:16;;;;;;;0.20;0.20;;;;;;;11.02;70.00;101684.94;2101502;28;20082;-68
2022/09/23 03:39:28;;;;;;;0.20;0.20;;;;;;;11.02;69.97;101684.16;2097105;28;20151;-66
2022/09/23 03:40:35;;;;;;;0.20;0.20;;;;;;;10.97;70.96;101687.03;2104960;28;20051;-68
2022/09/23 03:41:43;;;;;;;0.20;0.20;;;;;;;10.92;70.79;101690.69;2107240;28;20397;-68
2022/09/23 03:42:47;;;;;;;0.25;0.25;;;;;;;10.89;70.64;101690.53;2106744;28;20055;-68
2022/09/23 03:43:52;;;;;;;0.30;0.30;;;;;;;10.85;70.92;101686.88;2111532;28;20060;-69
2022/09/23 03:44:56;;;;;;;0.30;0.30;;;;;;;10.86;71.24;101683.09;2109725;28;20052;-67
2022/09/23 03:46:00;;;;;;;0.20;0.20;;;;;;;10.85;71.32;101674.19;2099847;28;20048;-67
2022/09/23 03:47:03;;;;;;;0.20;0.20;;;;;;;10.87;71.63;101681.97;2096576;28;20348;-67
2022/09/23 03:48:06;;;;;;;0.30;0.30;;;;;;;10.91;71.07;101677.50;2095873;28;20052;-67
2022/09/23 03:49:15;;;;;;;0.20;0.20;;;;;;;10.94;70.62;101682.28;2105617;28;20064;-68
2022/09/23 03:50:19;;;;;;;0.25;0.25;;;;;;;10.90;70.46;101675.91;2096057;28;20401;-68
2022/09/23 03:51:22;;;;;;;0.20;0.20;;;;;;;10.90;71.02;101684.81;2097704;28;20124;-68
2022/09/23 03:52:27;;;;;;;0.20;0.20;;;;;;;10.88;70.86;101678.16;2113990;28;20410;-68
2022/09/23 03:53:29;;;;;;;0.30;0.30;;;;;;;10.84;71.41;101682.59;2111525;28;20051;-69
2022/09/23 03:54:32;;;;;;;0.35;0.35;;;;;;;10.80;70.91;101687.84;2111487;28;20097;-67
2022/09/23 03:55:38;;;;;;;0.32;0.32;;;;;;;10.77;71.60;101687.69;2105499;28;20079;-66
2022/09/23 03:56:41;;;;;;;0.30;0.30;;;;;;;10.71;71.46;101678.19;2096923;28;20059;-66
2022/09/23 03:57:43;;;;;;;0.40;0.40;;;;;;;10.68;71.72;101678.81;2103990;28;20059;-66
2022/09/23 03:58:47;;;;;;;0.30;0.30;;;;;;;10.67;71.80;101682.63;2105407;28;20681;-66
2022/09/23 03:59:50;;;;;;;0.40;0.40;;;;;;;10.67;71.61;101680.75;2095670;28;20075;-67
2022/09/23 04:00:53;;;;;;;0.30;0.30;;;;;;;10.61;72.17;101673.91;2095979;28;20581;-67
2022/09/23 04:01:58;;;;;;;0.30;0.30;;;;;;;10.59;71.59;101671.53;2097167;28;20056;-67
2022/09/23 04:03:01;;;;;;;0.30;0.30;;;;;;;10.54;71.41;101674.38;2097013;28;20057;-68
2022/09/23 04:04:03;;;;;;;0.30;0.30;;;;;;;10.50;72.22;101673.44;2096612;28;20056;-67
2022/09/23 04:05:07;;;;;;;0.30;0.30;;;;;;;10.52;71.72;101665.84;2097150;28;20061;-67
2022/09/23 04:06:09;;;;;;;0.30;0.30;;;;;;;10.51;71.99;101669.63;2096795;28;20044;-67
2022/09/23 04:07:13;;;;;;;0.30;0.30;;;;;;;10.53;72.00;101664.72;2096189;28;20048;-68
2022/09/23 04:08:17;;;;;;;0.30;0.30;;;;;;;10.52;72.28;101665.03;2096640;28;20113;-67
2022/09/23 04:09:20;;;;;;;0.20;0.20;;;;;;;10.47;72.15;101663.28;2095119;28;20199;-68
2022/09/23 04:10:22;;;;;;;0.30;0.30;;;;;;;10.47;72.50;101668.69;2097131;28;20067;-67
2022/09/23 04:11:25;;;;;;;0.30;0.30;;;;;;;10.46;71.84;101664.38;2096470;28;20041;-67
2022/09/23 04:12:27;;;;;;;0.38;0.38;;;;;;;10.43;71.90;101662.31;2095245;28;20637;-67
2022/09/23 04:13:30;;;;;;;0.30;0.30;;;;;;;10.43;72.61;101656.16;2096818;28;20083;-67
2022/09/23 04:14:32;;;;;;;0.28;0.28;;;;;;;10.43;71.88;101662.31;2095575;28;20049;-68
2022/09/23 04:15:35;;;;;;;0.20;0.20;;;;;;;10.44;72.65;101660.44;2096663;28;20063;-67
2022/09/23 04:16:37;;;;;;;0.30;0.30;;;;;;;10.40;72.18;101662.97;2088722;28;20063;-67
2022/09/23 04:17:40;;;;;;;0.20;0.20;;;;;;;10.39;72.00;101658.69;2093337;28;20100;-68
2022/09/23 04:18:42;;;;;;;0.20;0.20;;;;;;;10.38;72.67;101659.00;2096695;28;20471;-67
2022/09/23 04:19:45;;;;;;;0.20;0.20;;;;;;;10.37;72.35;101655.50;2097041;28;20048;-68
2022/09/23 04:20:47;;;;;;;0.20;0.20;;;;;;;10.37;72.62;101657.41;2096753;28;20105;-69
2022/09/23 04:21:50;;;;;;;0.30;0.30;;;;;;;10.35;72.32;101655.03;2097181;28;20045;-67
2022/09/23 04:22:52;;;;;;;0.32;0.32;;;;;;;10.32;73.09;101650.25;2096843;28;20063;-67
2022/09/23 04:23:57;;;;;;;0.30;0.30;;;;;;;10.34;72.08;101653.44;2096840;28;20063;-68
2022/09/23 04:24:58;;;;;;;0.30;0.30;;;;;;;10.34;72.92;101661.53;2097110;28;20048;-68
2022/09/23 04:26:01;;;;;;;0.30;0.30;;;;;;;10.33;72.79;101657.28;2089550;28;20061;-68
2022/09/23 04:27:03;;;;;;;0.30;0.30;;;;;;;10.34;72.79;101658.84;2088646;28;20098;-68
2022/09/23 04:28:06;;;;;;;0.30;0.30;;;;;;;10.34;72.43;101660.75;2093449;28;20534;-67
2022/09/23 04:29:10;;;;;;;0.30;0.30;;;;;;;10.30;72.52;101660.59;2097603;28;20056;-68
2022/09/23 04:30:12;;;;;;;0.30;0.30;;;;;;;10.30;72.52;101663.31;2095853;28;20064;-68
2022/09/23 04:31:15;;;;;;;0.20;0.20;;;;;;;10.29;73.21;101661.69;2088892;28;20404;-68
2022/09/23 04:32:18;;;;;;;0.30;0.30;;;;;;;10.29;71.80;101661.69;2089745;28;20067;-68
2022/09/23 04:33:20;;;;;;;0.30;0.30;;;;;;;10.27;72.28;101652.34;2088809;28;20044;-67
2022/09/23 04:34:24;;;;;;;0.30;0.30;;;;;;;10.28;73.02;101659.31;2086138;28;20555;-67
2022/09/23 04:35:26;;;;;;;0.30;0.30;;;;;;;10.28;72.78;101659.31;2092433;28;20052;-67
2022/09/23 04:36:29;;;;;;;0.30;0.30;;;;;;;10.28;72.56;101653.91;2096884;28;20063;-67
2022/09/23 04:37:31;;;;;;;0.20;0.20;;;;;;;10.27;72.32;101658.56;2096566;28;20080;-67
2022/09/23 04:38:34;;;;;;;0.30;0.30;;;;;;;10.27;72.25;101653.16;2096448;28;20610;-68
2022/09/23 04:39:37;;;;;;;0.30;0.30;;;;;;;10.28;72.56;101653.91;2096771;28;20053;-67
2022/09/23 04:40:40;;;;;;;0.20;0.20;;;;;;;10.26;73.00;101656.94;2089737;28;20053;-68
2022/09/23 04:41:44;;;;;;;0.30;0.30;;;;;;;10.26;72.87;101656.94;2086042;28;20596;-67
2022/09/23 04:42:47;;;;;;;0.30;0.30;;;;;;;10.27;72.14;101649.66;2088669;28;20041;-67
2022/09/23 04:43:49;;;;;;;0.25;0.25;;;;;;;10.28;72.43;101660.13;2090354;28;20056;-67
2022/09/23 04:44:52;;;;;;;0.20;0.20;;;;;;;10.30;72.74;101657.09;2090132;28;20511;-68
2022/09/23 04:45:58;;;;;;;0.30;0.30;;;;;;;10.30;71.85;101655.22;2093632;28;20473;-68
2022/09/23 04:47:03;;;;;;;0.30;0.30;;;;;;;10.30;72.15;101657.91;2092169;28;20060;-68
2022/09/23 04:48:05;;;;;;;0.30;0.30;;;;;;;10.28;71.76;101646.63;2089978;28;20151;-68
2022/09/23 04:49:08;;;;;;;0.25;0.25;;;;;;;10.29;72.54;101656.31;2085057;28;20056;-68
2022/09/23 04:50:10;;;;;;;0.20;0.20;;;;;;;10.29;72.81;101653.59;2082718;28;20041;-68
2022/09/23 04:51:15;;;;;;;0.30;0.30;;;;;;;10.26;72.15;101646.16;2089101;28;20536;-67
2022/09/23 04:52:17;;;;;;;0.25;0.25;;;;;;;10.25;72.58;101647.28;2088627;28;20077;-67
2022/09/23 04:53:21;;;;;;;0.20;0.20;;;;;;;10.24;72.75;101647.59;2091653;28;20163;-68
2022/09/23 04:54:23;;;;;;;0.30;0.30;;;;;;;10.26;72.44;101648.84;2100656;28;20051;-68
2022/09/23 04:55:27;;;;;;;0.30;0.30;;;;;;;10.27;71.50;101649.66;2089968;28;20049;-68
2022/09/23 04:56:31;;;;;;;0.32;0.32;;;;;;;10.28;72.78;101654.72;2091746;28;20048;-68
2022/09/23 04:57:34;;;;;;;0.32;0.32;;;;;;;10.29;71.80;101650.91;2096745;28;20095;-68
2022/09/23 04:58:36;;;;;;;0.40;0.40;;;;;;;10.29;72.25;101659.00;2096642;28;20381;-68
2022/09/23 04:59:40;;;;;;;0.30;0.30;;;;;;;10.28;72.03;101646.63;2101493;28;20503;-68
2022/09/23 05:00:42;;;;;;;0.40;0.40;;;;;;;10.28;72.25;101649.31;2096831;28;20654;-68
2022/09/23 05:01:45;;;;;;;0.30;0.30;;;;;;;10.27;71.82;101650.44;2103469;28;20052;-69
2022/09/23 05:02:48;;;;;;;0.30;0.30;;;;;;;10.24;72.57;101640.25;2103395;28;20047;-68
2022/09/23 05:03:53;;;;;;;0.40;0.40;;;;;;;10.28;71.97;101645.81;2096720;28;20059;-68
2022/09/23 05:04:55;;;;;;;0.30;0.30;;;;;;;10.28;72.22;101651.22;2096734;28;20052;-68
2022/09/23 05:05:59;;;;;;;0.20;0.20;;;;;;;10.27;72.67;101646.94;2098102;28;20494;-68
2022/09/23 05:07:01;;;;;;;0.30;0.30;;;;;;;10.26;72.50;101646.16;2103233;28;20048;-68
2022/09/23 05:08:05;;;;;;;0.30;0.30;;;;;;;10.25;72.68;101652.66;2102078;28;20563;-68
2022/09/23 05:09:07;;;;;;;0.20;0.20;;;;;;;10.25;72.09;101644.56;2099937;28;20057;-68
2022/09/23 05:10:10;;;;;;;0.30;0.30;;;;;;;10.25;71.92;101651.88;2104696;28;20060;-68
2022/09/23 05:11:14;;;;;;;0.30;0.30;;;;;;;10.24;72.50;101640.25;2104910;28;20055;-68
2022/09/23 05:12:17;;;;;;;0.30;0.30;;;;;;;10.23;72.89;101649.47;2099855;28;20586;-68
2022/09/23 05:13:19;;;;;;;0.20;0.20;;;;;;;10.24;72.23;101642.19;2104369;28;20062;-68
2022/09/23 05:14:22;;;;;;;0.30;0.30;;;;;;;10.22;72.62;101645.22;2100535;28;20052;-68
2022/09/23 05:15:24;;;;;;;0.30;0.30;;;;;;;10.23;72.28;101641.38;2100503;28;20049;-68